createdAt,value
2019-05-18T00:01:13.594Z,97994.52
2019-05-18T00:03:42.034Z,97991.44
2019-05-18T00:06:10.418Z,97978.62
2019-05-18T00:08:38.902Z,97971.81
2019-05-18T00:11:07.369Z,97972.36
2019-05-18T00:13:35.766Z,97969.05
2019-05-18T00:16:04.252Z,97967.86
2019-05-18T00:18:32.648Z,97964.75
2019-05-18T00:21:01.104Z,97966.06
2019-05-18T00:23:29.520Z,97964.55
2019-05-18T00:25:57.988Z,97967.33
2019-05-18T00:28:26.580Z,97966.77
2019-05-18T00:30:55.005Z,97965.95
2019-05-18T00:33:23.520Z,97965.87
2019-05-18T00:35:51.927Z,97962.05
2019-05-18T00:38:20.334Z,97948.42
2019-05-18T00:40:48.745Z,97952.95
2019-05-18T00:43:17.192Z,97961.48
2019-05-18T00:45:45.609Z,97960.19
2019-05-18T00:48:14.017Z,97956.92
2019-05-18T00:50:42.469Z,97951.30
2019-05-18T00:53:10.943Z,97952.69
2019-05-18T00:55:39.428Z,97956.41
2019-05-18T00:58:07.868Z,97956.28
2019-05-18T01:00:36.334Z,97948.52
2019-05-18T01:03:04.793Z,97948.75
2019-05-18T01:05:33.183Z,97945.48
2019-05-18T01:08:01.594Z,97948.60
2019-05-18T01:10:30.068Z,97951.74
2019-05-18T01:12:58.537Z,97950.32
2019-05-18T01:15:27.133Z,97946.34
2019-05-18T01:17:57.736Z,97951.47
2019-05-18T01:20:25.732Z,97945.11
2019-05-18T01:22:54.129Z,97943.73
2019-05-18T01:25:22.570Z,97939.36
2019-05-18T01:27:51.036Z,97943.43
2019-05-18T01:30:19.595Z,97947.58
2019-05-18T01:32:48.022Z,97953.68
2019-05-18T01:35:16.559Z,97949.87
2019-05-18T01:37:44.987Z,97945.83
2019-05-18T01:40:13.761Z,97950.02
2019-05-18T01:42:42.167Z,97950.70
2019-05-18T01:45:16.896Z,97949.53
2019-05-18T01:47:41.415Z,97952.20
2019-05-18T01:50:10.073Z,97949.05
2019-05-18T01:52:38.555Z,97949.38
2019-05-18T01:55:08.106Z,97940.06
2019-05-18T01:57:36.530Z,97932.86
2019-05-18T02:00:09.498Z,97944.52
2019-05-18T02:02:37.939Z,97944.52
2019-05-18T02:05:06.814Z,97941.44
2019-05-18T02:07:35.256Z,97949.59
2019-05-18T02:10:05.014Z,97949.25
2019-05-18T02:12:33.445Z,97947.50
2019-05-18T02:15:02.155Z,97958.16
2019-05-18T02:17:30.603Z,97948.27
2019-05-18T02:19:59.048Z,97951.08
2019-05-18T02:22:27.465Z,97954.98
2019-05-18T02:24:55.956Z,97955.61
2019-05-18T02:27:24.415Z,97959.74
2019-05-18T02:29:52.852Z,97953.46
2019-05-18T02:32:21.301Z,97953.88
2019-05-18T02:34:49.736Z,97952.63
2019-05-18T02:37:18.172Z,97955.89
2019-05-18T02:39:48.221Z,97952.70
2019-05-18T02:42:16.626Z,97950.36
2019-05-18T02:44:45.027Z,97957.89
2019-05-18T02:47:13.455Z,97957.73
2019-05-18T02:49:41.906Z,97961.80
2019-05-18T02:52:10.354Z,97961.88
2019-05-18T02:54:38.799Z,97954.11
2019-05-18T02:57:07.205Z,97954.41
2019-05-18T02:59:35.659Z,97953.52
2019-05-18T03:02:04.133Z,97948.89
2019-05-18T03:04:32.560Z,97949.20
2019-05-18T03:07:01.209Z,97948.56
2019-05-18T03:09:29.638Z,97948.33
2019-05-18T03:11:58.123Z,97952.02
2019-05-18T03:14:26.650Z,97950.66
2019-05-18T03:16:55.198Z,97949.49
2019-05-18T03:19:23.615Z,97952.17
2019-05-18T03:21:52.098Z,97953.53
2019-05-18T03:24:20.580Z,97948.52
2019-05-18T03:26:49.045Z,97955.27
2019-05-18T03:29:17.483Z,97945.98
2019-05-18T03:31:45.891Z,97945.61
2019-05-18T03:34:14.413Z,97949.30
2019-05-18T03:36:42.897Z,97944.63
2019-05-18T03:39:11.326Z,97950.66
2019-05-18T03:41:39.749Z,97945.32
2019-05-18T03:44:08.239Z,97953.68
2019-05-18T03:46:36.665Z,97950.13
2019-05-18T03:49:05.167Z,97944.72
2019-05-18T03:51:33.568Z,97953.15
2019-05-18T03:54:01.972Z,97948.27
2019-05-18T03:56:30.395Z,97949.61
2019-05-18T03:58:58.808Z,97945.64
2019-05-18T04:01:27.257Z,97948.47
2019-05-18T04:03:55.691Z,97939.80
2019-05-18T04:06:24.118Z,97936.44
2019-05-18T04:08:52.513Z,97937.73
2019-05-18T04:11:20.946Z,97940.30
2019-05-18T04:13:49.393Z,97929.13
2019-05-18T04:16:17.837Z,97925.41
2019-05-18T04:18:46.255Z,97930.36
2019-05-18T04:21:14.654Z,97930.74
2019-05-18T04:23:43.132Z,97927.40
2019-05-18T04:26:11.561Z,97938.17
2019-05-18T04:28:39.978Z,97934.53
2019-05-18T04:31:08.439Z,97934.17
2019-05-18T04:33:36.888Z,97941.91
2019-05-18T04:36:05.290Z,97939.41
2019-05-18T04:38:33.704Z,97939.92
2019-05-18T04:41:02.133Z,97937.67
2019-05-18T04:43:30.558Z,97944.03
2019-05-18T04:45:59.056Z,97937.40
2019-05-18T04:48:27.494Z,97938.30
2019-05-18T04:50:55.949Z,97940.12
2019-05-18T04:53:24.344Z,97941.97
2019-05-18T04:55:52.794Z,97937.45
2019-05-18T04:58:21.211Z,97945.09
2019-05-18T05:00:49.704Z,97948.47
2019-05-18T05:03:18.054Z,97947.66
2019-05-18T05:05:46.484Z,97948.34
2019-05-18T05:08:14.889Z,97950.79
2019-05-18T05:10:43.380Z,97947.66
2019-05-18T05:13:11.849Z,97948.11
2019-05-18T05:15:40.319Z,97951.08
2019-05-18T05:18:08.836Z,97947.05
2019-05-18T05:20:37.868Z,97949.69
2019-05-18T05:23:06.337Z,97941.33
2019-05-18T05:25:34.756Z,97946.09
2019-05-18T05:28:03.181Z,97939.33
2019-05-18T05:30:33.069Z,97942.01
2019-05-18T05:33:01.539Z,97937.03
2019-05-18T05:35:29.969Z,97944.17
2019-05-18T05:37:58.384Z,97944.16
2019-05-18T05:40:26.817Z,97943.91
2019-05-18T05:42:55.263Z,97942.52
2019-05-18T05:45:23.702Z,97946.97
2019-05-18T05:47:53.014Z,97940.72
2019-05-18T05:50:34.597Z,97941.48
2019-05-18T05:52:51.730Z,97940.97
2019-05-18T05:55:20.145Z,97934.47
2019-05-18T05:57:48.559Z,97938.46
2019-05-18T06:00:18.799Z,97941.50
2019-05-18T06:02:47.292Z,97938.78
2019-05-18T06:05:15.980Z,97937.50
2019-05-18T06:07:44.387Z,97944.30
2019-05-18T06:10:13.127Z,97947.00
2019-05-18T06:12:41.560Z,97946.45
2019-05-18T06:15:10.463Z,97947.81
2019-05-18T06:17:38.884Z,97946.62
2019-05-18T06:20:08.528Z,97949.27
2019-05-18T06:22:37.144Z,97951.99
2019-05-18T06:25:07.571Z,97947.66
2019-05-18T06:27:36.255Z,97951.81
2019-05-18T06:30:06.064Z,97956.45
2019-05-18T06:32:34.476Z,97957.13
2019-05-18T06:35:02.919Z,97956.10
2019-05-18T06:37:31.330Z,97956.14
2019-05-18T06:39:59.745Z,97962.92
2019-05-18T06:42:28.160Z,97964.18
2019-05-18T06:44:56.570Z,97968.91
2019-05-18T06:47:24.991Z,97967.73
2019-05-18T06:49:53.541Z,97968.68
2019-05-18T06:52:21.976Z,97975.52
2019-05-18T06:54:50.834Z,97971.33
2019-05-18T06:57:20.054Z,97971.02
2019-05-18T06:59:49.222Z,97973.33
2019-05-18T07:02:17.630Z,97976.16
2019-05-18T07:04:46.139Z,97976.95
2019-05-18T07:07:14.557Z,97980.23
2019-05-18T07:09:43.020Z,97987.25
2019-05-18T07:12:11.459Z,97982.95
2019-05-18T07:14:39.844Z,97981.09
2019-05-18T07:17:08.282Z,97979.78
2019-05-18T07:19:36.838Z,97980.41
2019-05-18T07:22:05.261Z,97977.53
2019-05-18T07:24:33.688Z,97978.66
2019-05-18T07:27:02.125Z,97976.83
2019-05-18T07:29:30.556Z,97987.81
2019-05-18T07:31:59.031Z,97983.37
2019-05-18T07:34:27.557Z,97971.57
2019-05-18T07:36:56.127Z,97973.27
2019-05-18T07:39:24.556Z,97975.86
2019-05-18T07:41:53.981Z,97975.51
2019-05-18T07:44:22.407Z,97971.84
2019-05-18T07:46:50.852Z,97972.20
2019-05-18T07:49:19.274Z,97974.83
2019-05-18T07:51:47.705Z,97972.21
2019-05-18T07:54:16.140Z,97971.03
2019-05-18T07:56:44.568Z,97969.37
2019-05-18T07:59:12.965Z,97969.03
2019-05-18T08:01:41.369Z,97967.30
2019-05-18T08:04:09.814Z,97974.41
2019-05-18T08:06:38.248Z,97978.50
2019-05-18T08:09:08.184Z,97976.75
2019-05-18T08:11:36.605Z,97969.33
2019-05-18T08:14:05.196Z,97982.12
2019-05-18T08:16:33.624Z,97984.05
2019-05-18T08:19:02.057Z,97976.33
2019-05-18T08:21:30.469Z,97974.15
2019-05-18T08:23:58.889Z,97979.15
2019-05-18T08:26:27.383Z,97974.33
2019-05-18T08:28:55.789Z,97971.34
2019-05-18T08:31:24.402Z,97981.08
2019-05-18T08:33:52.809Z,97977.33
2019-05-18T08:36:21.242Z,97989.92
2019-05-18T08:38:49.702Z,97982.91
2019-05-18T08:41:18.124Z,97979.75
2019-05-18T08:43:46.532Z,97969.30
2019-05-18T08:46:14.973Z,97973.62
2019-05-18T08:48:43.499Z,97980.02
2019-05-18T08:51:12.009Z,97978.44
2019-05-18T08:53:40.460Z,97977.17
2019-05-18T08:56:08.923Z,97981.30
2019-05-18T08:58:37.348Z,97975.38
2019-05-18T09:01:05.786Z,97975.42
2019-05-18T09:03:34.184Z,97973.72
2019-05-18T09:06:02.777Z,97970.36
2019-05-18T09:08:31.193Z,97972.09
2019-05-18T09:10:59.597Z,97973.08
2019-05-18T09:13:28.018Z,97967.63
2019-05-18T09:15:56.461Z,97976.25
2019-05-18T09:18:24.983Z,97980.27
2019-05-18T09:20:53.403Z,97977.75
2019-05-18T09:23:21.861Z,97985.43
2019-05-18T09:25:50.307Z,97987.09
2019-05-18T09:28:18.731Z,97982.16
2019-05-18T09:30:47.135Z,97977.69
2019-05-18T09:33:15.555Z,97971.77
2019-05-18T09:35:44.005Z,97970.47
2019-05-18T09:38:12.448Z,97971.82
2019-05-18T09:40:40.854Z,97975.34
2019-05-18T09:43:09.253Z,97974.22
2019-05-18T09:45:37.687Z,97973.75
2019-05-18T09:48:06.136Z,97979.39
2019-05-18T09:50:34.522Z,97979.31
2019-05-18T09:53:03.050Z,97978.70
2019-05-18T09:55:31.468Z,97984.56
2019-05-18T09:57:59.880Z,97981.31
2019-05-18T10:00:28.719Z,97979.98
2019-05-18T10:02:57.162Z,97978.82
2019-05-18T10:05:25.603Z,97983.41
2019-05-18T10:07:56.735Z,97984.07
2019-05-18T10:10:25.418Z,97984.30
2019-05-18T10:12:53.840Z,97984.88
2019-05-18T10:15:22.276Z,97981.40
2019-05-18T10:17:50.717Z,97979.57
2019-05-18T10:20:20.359Z,97980.31
2019-05-18T10:22:59.152Z,97971.18
2019-05-18T10:25:18.910Z,97972.48
2019-05-18T10:27:47.355Z,97971.80
2019-05-18T10:30:16.097Z,97970.67
2019-05-18T10:32:44.531Z,97966.87
2019-05-18T10:35:13.740Z,97968.28
2019-05-18T10:37:42.181Z,97972.91
2019-05-18T10:40:11.458Z,97970.81
2019-05-18T10:42:39.869Z,97972.72
2019-05-18T10:45:09.329Z,97965.23
2019-05-18T10:47:37.757Z,97959.00
2019-05-18T10:50:07.047Z,97958.20
2019-05-18T10:52:35.448Z,97961.64
2019-05-18T10:55:05.753Z,97956.16
2019-05-18T10:57:34.193Z,97954.99
2019-05-18T11:00:02.991Z,97962.40
2019-05-18T11:02:31.514Z,97959.67
2019-05-18T11:04:59.950Z,97951.27
2019-05-18T11:07:29.067Z,97948.04
2019-05-18T11:09:57.674Z,97948.13
2019-05-18T11:12:26.011Z,97946.48
2019-05-18T11:14:54.464Z,97933.14
2019-05-18T11:17:22.852Z,97942.63
2019-05-18T11:19:51.269Z,97935.22
2019-05-18T11:22:19.710Z,97934.91
2019-05-18T11:24:48.123Z,97933.98
2019-05-18T11:27:16.548Z,97932.86
2019-05-18T11:29:44.953Z,97927.09
2019-05-18T11:32:13.357Z,97935.13
2019-05-18T11:34:41.782Z,97934.41
2019-05-18T11:37:10.176Z,97931.95
2019-05-18T11:39:38.573Z,97932.61
2019-05-18T11:42:07.030Z,97935.31
2019-05-18T11:44:35.513Z,97934.48
2019-05-18T11:47:04.608Z,97927.11
2019-05-18T11:49:33.327Z,97934.73
2019-05-18T11:52:01.726Z,97924.73
2019-05-18T11:54:30.245Z,97925.00
2019-05-18T11:56:58.677Z,97921.97
2019-05-18T11:59:27.070Z,97928.14
2019-05-18T12:01:56.436Z,97925.00
2019-05-18T12:04:24.825Z,97920.28
2019-05-18T12:06:53.239Z,97920.33
2019-05-18T12:09:21.675Z,97918.00
2019-05-18T12:11:50.348Z,97916.10
2019-05-18T12:14:18.775Z,97917.23
2019-05-18T12:16:47.214Z,97917.14
2019-05-18T12:19:15.632Z,97921.15
2019-05-18T12:21:44.088Z,97916.08
2019-05-18T12:24:15.438Z,97914.19
2019-05-18T12:26:42.665Z,97910.69
2019-05-18T12:29:11.058Z,97907.96
2019-05-18T12:31:39.490Z,97909.67
2019-05-18T12:34:07.902Z,97915.14
2019-05-18T12:36:36.328Z,97915.64
2019-05-18T12:39:06.465Z,97911.17
2019-05-18T12:41:34.962Z,97914.66
2019-05-18T12:44:03.437Z,97902.11
2019-05-18T12:46:31.873Z,97911.63
2019-05-18T12:49:00.261Z,97913.48
2019-05-18T12:51:28.661Z,97910.48
2019-05-18T12:53:57.085Z,97909.98
2019-05-18T12:56:25.506Z,97908.64
2019-05-18T12:58:53.956Z,97913.00
2019-05-18T13:01:22.444Z,97907.61
2019-05-18T13:03:50.858Z,97906.69
2019-05-18T13:06:19.269Z,97904.42
2019-05-18T13:08:47.719Z,97911.92
2019-05-18T13:11:16.147Z,97909.05
2019-05-18T13:13:44.573Z,97911.20
2019-05-18T13:16:12.998Z,97925.00
2019-05-18T13:18:41.418Z,97924.33
2019-05-18T13:21:09.858Z,97929.19
2019-05-18T13:23:38.298Z,97923.33
2019-05-18T13:26:06.713Z,97930.03
2019-05-18T13:28:35.136Z,97926.63
2019-05-18T13:31:03.556Z,97942.67
2019-05-18T13:33:31.969Z,97945.72
2019-05-18T13:36:00.386Z,97944.43
2019-05-18T13:38:28.788Z,97939.34
2019-05-18T13:40:57.259Z,97946.78
2019-05-18T13:43:25.673Z,97939.26
2019-05-18T13:45:54.109Z,97935.66
2019-05-18T13:48:22.543Z,97945.02
2019-05-18T13:50:51.069Z,97932.09
2019-05-18T13:53:19.462Z,97938.56
2019-05-18T13:55:47.891Z,97933.73
2019-05-18T13:58:16.349Z,97936.20
2019-05-18T14:00:44.779Z,97933.50
2019-05-18T14:03:13.207Z,97921.42
2019-05-18T14:05:41.688Z,97925.75
2019-05-18T14:08:15.553Z,97928.61
2019-05-18T14:10:40.257Z,97934.00
2019-05-18T14:13:08.664Z,97935.89
2019-05-18T14:15:37.147Z,97932.99
2019-05-18T14:18:05.584Z,97936.17
2019-05-18T14:20:33.996Z,97922.23
2019-05-18T14:23:03.319Z,97925.52
2019-05-18T14:25:31.786Z,97925.75
2019-05-18T14:28:00.194Z,97920.26
2019-05-18T14:30:28.604Z,97920.39
2019-05-18T14:32:57.813Z,97924.59
2019-05-18T14:35:26.215Z,97921.05
2019-05-18T14:37:54.639Z,97923.69
2019-05-18T14:40:23.051Z,97927.55
2019-05-18T14:42:51.473Z,97926.03
2019-05-18T14:45:20.583Z,97930.87
2019-05-18T14:47:49.063Z,97929.31
2019-05-18T14:50:18.917Z,97924.45
2019-05-18T14:52:47.332Z,97918.81
2019-05-18T14:55:16.208Z,97924.12
2019-05-18T14:57:44.627Z,97926.32
2019-05-18T15:00:13.457Z,97915.70
2019-05-18T15:02:41.896Z,97927.41
2019-05-18T15:05:10.975Z,97923.92
2019-05-18T15:07:39.380Z,97923.98
2019-05-18T15:10:09.676Z,97923.59
2019-05-18T15:12:38.211Z,97924.23
2019-05-18T15:15:07.970Z,97925.29
2019-05-18T15:17:36.533Z,97917.83
2019-05-18T15:20:06.922Z,97920.77
2019-05-18T15:22:35.345Z,97919.64
2019-05-18T15:25:04.103Z,97920.59
2019-05-18T15:27:37.531Z,97917.61
2019-05-18T15:30:08.263Z,97917.31
2019-05-18T15:32:36.859Z,97921.84
2019-05-18T15:35:07.283Z,97917.51
2019-05-18T15:37:35.763Z,97915.09
2019-05-18T15:40:05.393Z,97915.09
2019-05-18T15:42:33.963Z,97916.75
2019-05-18T15:45:02.437Z,97913.69
2019-05-18T15:47:31.553Z,97916.98
2019-05-18T15:49:59.952Z,97915.41
2019-05-18T15:52:28.343Z,97912.20
2019-05-18T15:54:56.758Z,97910.02
2019-05-18T15:57:25.173Z,97916.02
2019-05-18T15:59:53.576Z,97918.89
2019-05-18T16:02:21.999Z,97912.39
2019-05-18T16:04:50.481Z,97906.43
2019-05-18T16:07:18.887Z,97900.09
2019-05-18T16:09:47.355Z,97899.63
2019-05-18T16:12:15.782Z,97902.76
2019-05-18T16:14:44.221Z,97901.66
2019-05-18T16:17:12.639Z,97897.17
2019-05-18T16:19:41.091Z,97902.75
2019-05-18T16:22:09.500Z,97905.78
2019-05-18T16:24:37.918Z,97899.01
2019-05-18T16:27:06.342Z,97893.17
2019-05-18T16:29:34.901Z,97904.47
2019-05-18T16:32:03.328Z,97902.91
2019-05-18T16:34:31.948Z,97894.83
2019-05-18T16:37:00.901Z,97895.95
2019-05-18T16:39:29.535Z,97908.75
2019-05-18T16:41:57.942Z,97910.63
2019-05-18T16:44:26.379Z,97903.27
2019-05-18T16:46:54.803Z,97898.03
2019-05-18T16:49:23.243Z,97892.70
2019-05-18T16:51:51.671Z,97894.25
2019-05-18T16:54:20.097Z,97883.70
2019-05-18T16:56:48.526Z,97887.27
2019-05-18T16:59:16.945Z,97894.19
2019-05-18T17:01:45.448Z,97894.41
2019-05-18T17:04:13.905Z,97891.91
2019-05-18T17:06:42.360Z,97897.20
2019-05-18T17:09:10.753Z,97899.98
2019-05-18T17:11:39.201Z,97898.12
2019-05-18T17:14:07.582Z,97891.79
2019-05-18T17:16:35.992Z,97901.78
2019-05-18T17:19:04.398Z,97903.70
2019-05-18T17:21:32.835Z,97897.20
2019-05-18T17:24:02.222Z,97907.03
2019-05-18T17:26:30.667Z,97909.73
2019-05-18T17:28:59.069Z,97910.78
2019-05-18T17:31:27.497Z,97916.33
2019-05-18T17:33:55.957Z,97913.45
2019-05-18T17:36:24.344Z,97920.16
2019-05-18T17:38:52.770Z,97913.42
2019-05-18T17:41:21.174Z,97914.27
2019-05-18T17:43:49.666Z,97915.23
2019-05-18T17:46:18.081Z,97910.98
2019-05-18T17:48:46.546Z,97908.48
2019-05-18T17:51:15.008Z,97916.86
2019-05-18T17:53:43.416Z,97918.16
2019-05-18T17:56:11.806Z,97925.58
2019-05-18T17:58:40.287Z,97926.52
2019-05-18T18:01:08.805Z,97931.86
2019-05-18T18:03:37.218Z,97941.36
2019-05-18T18:06:05.631Z,97942.95
2019-05-18T18:08:34.087Z,97945.17
2019-05-18T18:11:02.553Z,97945.31
2019-05-18T18:13:30.964Z,97950.83
2019-05-18T18:15:59.387Z,97953.66
2019-05-18T18:18:28.076Z,97952.42
2019-05-18T18:20:56.497Z,97951.38
2019-05-18T18:23:24.922Z,97950.04
2019-05-18T18:25:53.338Z,97946.73
2019-05-18T18:28:21.736Z,97940.91
2019-05-18T18:30:50.147Z,97937.59
2019-05-18T18:33:18.558Z,97931.90
2019-05-18T18:35:47.078Z,97937.14
2019-05-18T18:38:15.479Z,97938.05
2019-05-18T18:40:44.139Z,97949.32
2019-05-18T18:43:12.562Z,97961.87
2019-05-18T18:45:40.995Z,97971.12
2019-05-18T18:48:09.395Z,97963.86
2019-05-18T18:50:37.807Z,97968.59
2019-05-18T18:53:06.240Z,97968.73
2019-05-18T18:55:34.690Z,97970.30
2019-05-18T18:58:03.110Z,97978.06
2019-05-18T19:00:31.576Z,97970.34
2019-05-18T19:03:00.064Z,97967.59
2019-05-18T19:05:28.500Z,97972.23
2019-05-18T19:07:56.918Z,97968.28
2019-05-18T19:10:25.396Z,97973.64
2019-05-18T19:12:53.831Z,97980.45
2019-05-18T19:15:22.259Z,97988.51
2019-05-18T19:17:50.902Z,97989.30
2019-05-18T19:20:19.549Z,97983.69
2019-05-18T19:22:47.962Z,97979.45
2019-05-18T19:25:16.713Z,97974.89
2019-05-18T19:27:54.710Z,97973.34
2019-05-18T19:30:15.623Z,97984.02
2019-05-18T19:32:44.054Z,97985.72
2019-05-18T19:35:13.581Z,97991.36
2019-05-18T19:37:41.985Z,97996.20
2019-05-18T19:40:10.776Z,97993.99
2019-05-18T19:42:39.266Z,97998.52
2019-05-18T19:45:08.572Z,98007.94
2019-05-18T19:47:37.021Z,98008.59
2019-05-18T19:50:06.648Z,98011.45
2019-05-18T19:52:35.118Z,98017.15
2019-05-18T19:55:04.433Z,98028.30
2019-05-18T19:57:33.476Z,98032.32
2019-05-18T20:00:02.273Z,98037.34
2019-05-18T20:02:30.748Z,98044.41
2019-05-18T20:05:07.614Z,98053.69
2019-05-18T20:07:29.598Z,98056.09
2019-05-18T20:09:58.002Z,98052.02
2019-05-18T20:12:26.531Z,98060.59
2019-05-18T20:14:54.947Z,98052.21
2019-05-18T20:17:23.391Z,98054.20
2019-05-18T20:19:51.817Z,98041.11
2019-05-18T20:22:20.236Z,98040.75
2019-05-18T20:24:48.667Z,98035.41
2019-05-18T20:27:17.139Z,98036.88
2019-05-18T20:29:45.597Z,98039.38
2019-05-18T20:32:14.023Z,98043.86
2019-05-18T20:34:42.458Z,98047.98
2019-05-18T20:37:10.916Z,98050.71
2019-05-18T20:39:39.337Z,98051.47
2019-05-18T20:42:07.833Z,98059.97
2019-05-18T20:44:36.281Z,98057.34
2019-05-18T20:47:04.795Z,98051.78
2019-05-18T20:49:33.854Z,98053.10
2019-05-18T20:52:02.289Z,98054.88
2019-05-18T20:54:30.694Z,98049.45
2019-05-18T20:56:59.144Z,98047.98
2019-05-18T20:59:27.573Z,98046.09
2019-05-18T21:01:56.009Z,98037.59
2019-05-18T21:04:24.481Z,98032.76
2019-05-18T21:06:52.921Z,98022.38
2019-05-18T21:09:21.494Z,98015.73
2019-05-18T21:11:50.526Z,98000.67
2019-05-18T21:14:18.935Z,98000.67
2019-05-18T21:16:47.382Z,97999.19
2019-05-18T21:19:15.797Z,98004.01
2019-05-18T21:21:44.213Z,98007.20
2019-05-18T21:24:12.644Z,98004.57
2019-05-18T21:26:41.179Z,98010.80
2019-05-18T21:29:09.585Z,98008.77
2019-05-18T21:31:37.978Z,98009.95
2019-05-18T21:34:06.441Z,98006.52
2019-05-18T21:36:34.880Z,98011.39
2019-05-18T21:39:05.500Z,98009.30
2019-05-18T21:41:34.240Z,98009.88
2019-05-18T21:44:02.668Z,98011.78
2019-05-18T21:46:31.158Z,98020.86
2019-05-18T21:48:59.582Z,98019.16
2019-05-18T21:51:28.056Z,98016.48
2019-05-18T21:53:56.541Z,98017.84
2019-05-18T21:56:24.972Z,98014.20
2019-05-18T21:58:53.467Z,98009.66
2019-05-18T22:01:22.013Z,98012.73
2019-05-18T22:03:50.473Z,98014.13
2019-05-18T22:06:18.896Z,98010.97
2019-05-18T22:08:47.275Z,98011.36
2019-05-18T22:11:15.875Z,98004.16
2019-05-18T22:13:44.296Z,98007.14
2019-05-18T22:16:12.729Z,98007.72
2019-05-18T22:18:41.160Z,98006.38
2019-05-18T22:21:09.643Z,97999.94
2019-05-18T22:23:38.062Z,97996.33
2019-05-18T22:26:06.476Z,97992.05
2019-05-18T22:28:34.986Z,97993.38
2019-05-18T22:31:03.489Z,97996.89
2019-05-18T22:33:31.911Z,97997.44
2019-05-18T22:36:00.335Z,97992.89
2019-05-18T22:38:28.757Z,97994.53
2019-05-18T22:40:57.168Z,97991.13
2019-05-18T22:43:25.658Z,97992.61
2019-05-18T22:45:54.080Z,97993.16
2019-05-18T22:48:22.559Z,97994.47
2019-05-18T22:50:50.989Z,97993.12
2019-05-18T22:53:19.427Z,97996.50
2019-05-18T22:55:47.832Z,97991.81
2019-05-18T22:58:16.274Z,97990.74
2019-05-18T23:00:44.685Z,97992.68
2019-05-18T23:03:13.099Z,97991.20
2019-05-18T23:05:41.541Z,97990.52
2019-05-18T23:08:09.997Z,97981.48
2019-05-18T23:10:39.112Z,97981.48
2019-05-18T23:13:07.551Z,97979.22
2019-05-18T23:15:36.393Z,97981.02
2019-05-18T23:18:05.343Z,97976.66
2019-05-18T23:20:33.786Z,97976.84
2019-05-18T23:23:02.235Z,97973.32
2019-05-18T23:25:30.660Z,97974.09
2019-05-18T23:27:59.100Z,97973.32
2019-05-18T23:30:27.504Z,97973.41
2019-05-18T23:32:55.933Z,97976.11
2019-05-18T23:35:24.340Z,97977.38
2019-05-18T23:37:52.764Z,97968.83
2019-05-18T23:40:21.298Z,97972.06
2019-05-18T23:42:49.747Z,97968.20
2019-05-18T23:45:18.137Z,97969.95
2019-05-18T23:47:46.555Z,97968.69
2019-05-18T23:50:15.205Z,97972.73
2019-05-18T23:52:43.626Z,97970.35
2019-05-18T23:55:12.607Z,97968.83
2019-05-18T23:57:41.006Z,97965.31
